x

Buoy F01 - West Penobscot Bay (44033) Wave Buoy

2:04 - Tue 5th May 2015 All times are EDT. -4 hours from GMT.

  • Sig Wave height 3.6ft
  • Peak Period 6s
  • Wind
    13mph, 18mph gusts
  • Sea Temp 42°f
  • Air Temp 48°f
  • Sea Pressure 1013.2mb
  • Buoy F01 - West Penobscot Bay
  • Buoy F01 - West Penobscot Bay

More Historic Weather Station data

Upgrade to MSW Pro to gain access to the past 30 days of data for over 8000 Wavebouys and Weather Stations around the globe.

Join Pro

Comparision Forecast

View Surf forecast
   
mar. 05/05 2:04 3.5ft 6s 13 18 mph 1013.2mb 42f 48f
1:04 3.5ft 6s 16 18 mph 1013.5mb 41f 48f
12:04 3.5ft 5s 18 20 mph 1013.7mb 41f 48f
lun. 05/04 11:04 4ft 5s 18 20 mph 1014.1mb 41f 50f
10:04 4ft 5s 13 16 mph 1014.8mb 42f 48f
9:04 3.5ft 5s 9 11 mph 1015.5mb 42f 47f
8:04 2.5ft 5s 9 11 mph 1015.6mb 42f 48f
7:04 2.5ft 5s 7 9 mph 1015.9mb 42f 47f
6:04 1.6ft 5s 7 9 mph 1016.4mb 42f 47f
5:04 1.3ft 5s 9
mph
1016.7mb 42f 44f
4:04 1.6ft 5s 9 11 mph 1017.3mb 42f 44f
3:04 1.3ft 5s 4 7 mph 1018mb 42f 44f
2:04 1.6ft 6s 9 11 mph 1018.3mb 42f 44f
1:04 1.3ft 5s 13 16 mph 1018.7mb 42f 44f
12:04 1.6ft 6s 11 13 mph 1019.3mb 42f 44f
11:04 1.6ft 5s 11 13 mph 1019.7mb 42f 44f
10:04 1.6ft 5s 9
mph
1020mb 41f 43f
9:04 2ft 5s 7 9 mph 1020.3mb 41f 43f
8:04 2ft 8s 7 9 mph 1020.5mb 41f 43f
7:04 2ft 5s 4 7 mph 1020.1mb 41f 43f
6:04 1.6ft 5s 4
mph
1019.7mb 41f 42f
5:04 2ft 5s 4
mph
1019.4mb 41f 42f
4:04 1.6ft 5s 4
mph
1019.4mb 41f 42f
2:04 1.3ft 5s 7 9 mph 1019.1mb 41f 42f
1:04 1.6ft 5s 7
mph
1018.9mb 41f 42f
12:04 1.6ft 5s 7
mph
1018.9mb 41f 42f
dim. 05/03 11:04 1.6ft 6s 4 7 mph 1018.7mb 42f 42f
10:04 1.6ft 4s 4 7 mph 1018.7mb 42f 42f
9:04 1.6ft 8s 2 4 mph 1018.7mb 42f 42f
8:04 1.6ft 8s 7 9 mph 1018.2mb 42f 43f
7:04 1.6ft 6s 4 7 mph 1018mb 42f 43f
6:04 1.3ft 8s 9 11 mph 1017.8mb 42f 44f
5:04 1ft 2s 11 13 mph 1017.5mb 42f 44f
4:04 1.3ft 5s 13 16 mph 1017.4mb 43f 44f
3:04 1.3ft 8s 11 13 mph 1017.5mb 43f 43f
2:04 1.3ft 8s 11 13 mph 1017.7mb 42f 41f
1:04 1.3ft 6s 11 13 mph 1017.5mb 43f 40f
12:04 0.7ft  -  13 16 mph 1017.3mb 42f 41f
11:04 1.3ft 6s 13
mph
1017.4mb 42f 40f
10:04 1.3ft 6s 9 11 mph 1017.3mb 41f 40f
9:04 1.3ft 8s 9 11 mph 1017.5mb 42f 40f
8:04 1.3ft 6s 11
mph
1017.4mb 42f 39f
7:04 1.3ft 8s 9 11 mph 1017mb 41f 38f
6:04 1ft 3s 9 13 mph 1016.2mb 41f 38f
5:04 1.3ft 8s 13 16 mph 1015.4mb 42f 39f
4:04 1.3ft 8s 9 11 mph 1015.1mb 42f 40f
3:04 1.3ft 8s 7 9 mph 1015mb 42f 41f
2:04 1ft 11s 7 9 mph 1015.2mb 41f 41f
1:04 1ft 8s 7 9 mph 1015.3mb 42f 40f
12:04 1.3ft 11s 7 9 mph 1015.2mb 42f 39f
sam. 05/02 11:04 1ft 6s 9 11 mph 1015.3mb 42f 39f
10:04 1ft 8s 11 13 mph 1015.3mb 42f 39f
9:04 1ft 11s 9 11 mph 1014.8mb 42f 41f
8:04 1ft 6s 11
mph
1014.5mb 43f 41f
7:04 1ft 6s 11 13 mph 1014.3mb 43f 41f
6:04 1.3ft 6s 11 13 mph 1014mb 43f 40f
5:04 1.3ft 6s 13
mph
1014mb 43f 40f
4:04 1.3ft 8s 13 18 mph 1013.9mb 44f 39f
3:04 1ft 8s 11 13 mph 1014.3mb 44f 39f
2:04 1ft 8s 9 11 mph 1014.8mb 43f 39f
1:04 1ft 8s 9 11 mph 1015mb 43f 39f
12:04 1ft 8s 9 11 mph 1015.1mb 43f 39f
11:04 1ft 6s 7 9 mph 1015.4mb 41f 38f
10:04 1ft 6s 4 7 mph 1015.6mb 42f 39f
9:04 1ft 6s 2 4 mph 1015.6mb 42f 39f
8:04 1ft 8s 4 7 mph 1015.7mb 41f 38f
7:04 1.3ft 6s 4 7 mph 1015.7mb 41f 38f
6:04 1ft 6s 7
mph
1015.5mb 41f 38f
5:04 1ft 8s 7 9 mph 1015.2mb 42f 38f
4:04 1ft 6s 4
mph
1015mb 42f 39f
3:04 1ft 8s 2
mph
1015.2mb 42f 39f
2:04 1ft 8s  -  mph 1015.1mb 42f 39f
1:04 0.7ft  -  2
mph
1015.2mb 41f 39f
12:04 1ft 8s 2 4 mph 1015.3mb 41f 40f
ven. 05/01 11:04 0.7ft  -  2 4 mph 1015.3mb 41f 40f
10:04 0.7ft  -  4
mph
1015.3mb 41f 40f
9:04 0.7ft  -  7
mph
1015.2mb 41f 40f
8:04 1ft 8s 7 9 mph 1014.7mb 42f 40f
7:04 0.7ft  -  7 9 mph 1014.5mb 42f 40f
6:04 1ft 3s 7 9 mph 1014.5mb 43f 41f
5:04 1.3ft 8s 7 9 mph 1014.6mb 42f 41f
4:04 1ft 3s 9
mph
1014.8mb 41f 40f
3:04 1.3ft 4s 9 11 mph 1014.9mb 41f 39f
2:04 1.3ft 3s 13 16 mph 1014.8mb 41f 39f
1:04 1ft 3s 16 18 mph 1014.5mb 41f 39f
12:04 1ft 6s 13 16 mph 1014.7mb 41f 39f
11:04 1ft 8s 9
mph
1015.2mb 40f 42f
10:04 1ft 3s 7 9 mph 1015.4mb 40f 40f
9:04 1.3ft 3s 13 16 mph 1015.3mb 40f 40f
8:04 1.6ft 3s 16 18 mph 1015.2mb 40f 39f